x

Pt Arena - 19nm North Of Point Arena, Ca (46014) Wave Buoy

7:50pm - Thu 28th May 2015 All times are PDT. -7 hours from GMT.

  • Sig Wave height 4.6ft
  • Peak Period 12s
  • Average Period 7s
  • Wind
    13mph, 18mph gusts
  • Sea Temp 52°f
  • Sea Pressure 1016.7mb
  • Pt Arena - 19nm North Of Point Arena, Ca
  • Pt Arena - 19nm North Of Point Arena, Ca

More Historic Weather Station data

Upgrade to MSW Pro to gain access to the past 30 days of data for over 8000 Wavebouys and Weather Stations around the globe.

Join Pro

Comparision Forecast

View Surf forecast
   
Thu 05/28 7:50pm 4.5ft 12s 7s 13 18 mph 1016.7mb 52f
6:50pm 5ft 14s 7s 13 16 mph 1016.5mb 52f
5:50pm 5ft 13s 8s 16 18 mph 1016.9mb 52f
4:50pm 5ft 13s 8s 13 18 mph 1017.4mb 52f
3:50pm 5ft 13s 8s 4 7 mph 1017.6mb 52f
2:50pm 5ft 15s 8s 4 7 mph 1017.9mb 52f
1:50pm 5ft 12s 8s 7 9 mph 1018.2mb 52f
12:50pm 6ft 17s 7s 9 11 mph 1018.4mb 52f
11:50am 5.5ft 14s 7s 18 20 mph 1018mb 51f
10:50am 5ft 13s 6s 16 22 mph 1017.9mb 51f
9:50am 6ft 13s 6s 11
mph
1017.9mb 51f
8:50am 6.5ft 15s 6s 16 20 mph 1017.6mb 51f
7:50am 5ft 14s 6s 16 20 mph 1017.6mb 51f
6:50am 6ft 14s 7s 16 20 mph 1017.1mb 51f
5:50am 6ft 14s 7s 16 20 mph 1017.4mb 51f
4:50am 6ft 15s 6s 16 20 mph 1017.2mb 51f
3:50am 6ft 13s 6s 11 16 mph 1017mb 51f
2:50am 6ft 12s 6s 16 20 mph 1016.8mb 51f
1:50am 6.5ft 14s 6s 20 22 mph 1016.8mb 51f
12:50am 6.5ft 14s 6s 22 27 mph 1016.9mb 51f
Wed 05/27 11:50pm 6.5ft 14s 6s 20 25 mph 1016.9mb 51f
10:50pm 5.5ft 15s 6s 20 25 mph 1017.4mb 51f
9:50pm 6ft 15s 7s 18 20 mph 1017.4mb 51f
8:50pm 5.5ft 14s 6s 13 18 mph 1017.3mb 51f
7:50pm 5.5ft 14s 7s 20 22 mph 1017mb 52f
6:50pm 6ft 14s 7s 11 16 mph 1017.3mb 52f
5:50pm 6ft 14s 7s 13 16 mph 1017.4mb 52f
4:50pm 6ft 15s 7s 7 9 mph 1017.9mb 52f
3:50pm 6ft 15s 7s 9 11 mph 1017.9mb 52f
2:50pm 5ft 15s 7s 9 11 mph 1017.9mb 52f
1:50pm 6ft 15s 7s 9 11 mph 1017.8mb 52f
12:50pm 7ft 15s 7s 16 20 mph 1017.6mb 52f
11:50am 7ft 15s 7s 16 18 mph 1017.3mb 52f
10:50am 6ft 15s 6s 16 18 mph 1017mb 52f
9:50am 6.5ft 15s 6s 9 11 mph 1017mb 51f
8:50am 6ft 15s 5s 20 27 mph 1016.3mb 51f
7:50am 6ft 16s 6s 20 25 mph 1016.5mb 52f
6:50am 5.5ft 15s 6s 22 27 mph 1016.1mb 52f
5:50am 5.5ft 16s 6s 9 11 mph 1016.2mb 52f
4:50am 5.5ft 16s 6s 22 25 mph 1015.6mb 52f
3:50am 5ft 15s 6s 13 18 mph 1016.1mb 52f
2:50am 5ft 14s 7s 9 11 mph 1016.3mb 52f
1:50am 4.5ft 16s 7s 11 16 mph 1016.4mb 52f
12:50am 5ft 16s 7s 7 9 mph 1016.5mb 52f
Tue 05/26 11:50pm 4.5ft 15s 7s 4 9 mph 1016.2mb 52f
10:50pm 4.5ft 16s 7s 4 9 mph 1016mb 52f
9:50pm 4.5ft 15s 8s 4 9 mph 1015.8mb 52f
8:50pm 4.5ft 14s 7s 2 7 mph 1015.8mb 52f
7:50pm 4.5ft 16s 8s 4 7 mph 1015.8mb 52f
6:50pm 4.5ft 16s 7s 7 9 mph 1015.7mb 52f
5:50pm 5ft 16s 7s 9 11 mph 1015.9mb 52f
4:50pm 5ft 16s 7s 4 7 mph 1016.1mb 52f
3:50pm 5ft 15s 8s 4 7 mph 1016.2mb 52f
2:50pm 4.5ft 17s 7s 7 9 mph 1016.3mb 52f
1:50pm 4.5ft 17s 7s 9 11 mph 1016.5mb 52f
12:50pm 5ft 17s 7s 9 11 mph 1016.6mb 52f
11:50am 5ft 15s 7s 9 11 mph 1016.5mb 52f
10:50am 5ft 16s 7s  -  2 mph 1016.3mb 52f
9:50am 5ft 8s 7s  -  2 mph 1016.3mb 52f
8:50am 5ft 9s 6s 2 4 mph 1016.3mb 51f
7:50am 5ft 8s 6s 7 9 mph 1015.7mb 51f
6:50am 5.5ft 15s 6s 9 11 mph 1015.3mb 51f
5:50am 6ft 11s 7s 2 4 mph 1014.9mb 51f
4:50am 5.5ft 11s 6s 11 13 mph 1014.9mb 51f
3:50am 5.5ft 8s 6s 2 4 mph 1015mb 51f
2:50am 6ft 8s 6s 13 16 mph 1015.1mb 51f
1:50am 5ft 7s 6s 9 11 mph 1014.8mb 51f
12:50am 5.5ft 11s 6s 9 11 mph 1014.9mb 51f
Mon 05/25 11:50pm 6ft 11s 6s 9 11 mph 1014.8mb 51f
10:50pm 6.5ft 8s 6s 4 9 mph 1014.4mb 51f
9:50pm 6ft 8s 6s 13 16 mph 1014.6mb 51f
8:50pm 5.5ft 8s 6s 13 18 mph 1014.3mb 51f
7:50pm 5.5ft 8s 6s 13 16 mph 1014.3mb 51f
6:50pm 6ft 8s 6s 13 18 mph 1014.3mb 51f
5:50pm 5ft 8s 6s 9 11 mph 1014.6mb 51f
4:50pm 6ft 8s 6s 11 13 mph 1014.9mb 51f
3:50pm 5.5ft 8s 6s 9 11 mph 1015.1mb 51f
2:50pm 6ft 8s 7s 9 11 mph 1015.3mb 51f
1:50pm 6ft 8s 6s 4 7 mph 1015.5mb 51f
12:50pm 6.5ft 8s 6s  -  2 mph 1015.3mb 51f
11:50am 7ft 9s 7s 7
mph
1015mb 51f
10:50am 7ft 9s 7s 7 9 mph 1014.8mb 50f
9:50am 7ft 9s 6s 11 13 mph 1014.3mb 50f
8:50am 7ft 9s 6s 16 18 mph 1014.1mb 50f
7:50am 7ft 9s 6s 11 13 mph 1014.3mb 50f
6:50am 7ft 8s 6s 16 20 mph 1014mb 50f
5:50am 7ft 8s 6s 20 25 mph 1013.5mb 50f
4:50am 7ft 8s 6s 20 22 mph 1013.7mb 50f
3:50am 6.5ft 8s 6s 20 25 mph 1013.6mb 50f